Time;durP1;ratioP1;P1;durP2;ratioP2;P2;SDS_P1;SDS_P2;PMS_P1;PMS_P2;Temp;Humidity;BMP_temperature;BMP_pressure;BME280_temperature;BME280_humidity;BME280_pressure;Samples;Min_cycle;Max_cycle;Signal;HPM_P1;HPM_P2
2022/07/30 00:00:34;;;;;;;2.45;2.25;;;13.30;99.90;;;;;;21118354;28;20459;-58
2022/07/30 00:10:37;;;;;;;2.28;2.00;;;13.10;99.90;;;;;;21108621;28;20396;-58
2022/07/30 00:20:40;;;;;;;3.28;1.98;;;12.90;99.90;;;;;;21123629;28;20385;-58
2022/07/30 00:30:42;;;;;;;6.15;2.55;;;12.80;99.90;;;;;;21114335;28;20048;-58
2022/07/30 00:40:48;;;;;;;2.20;1.90;;;12.90;99.90;;;;;;21119348;28;20043;-58
2022/07/30 00:50:50;;;;;;;2.90;2.22;;;13.00;99.90;;;;;;21116485;28;20514;-58
2022/07/30 01:00:54;;;;;;;5.38;2.10;;;12.90;99.90;;;;;;21118126;28;20040;-58
2022/07/30 01:10:56;;;;;;;2.22;1.48;;;12.70;99.90;;;;;;21117158;28;20092;-58
2022/07/30 01:21:08;;;;;;;2.30;1.52;;;12.80;99.90;;;;;;21109303;28;20081;-60
2022/07/30 01:31:14;;;;;;;1.98;1.52;;;12.80;99.90;;;;;;21099051;28;20122;-60
2022/07/30 01:41:18;;;;;;;2.33;1.33;;;12.80;99.90;;;;;;21094363;28;20081;-58
2022/07/30 01:51:22;;;;;;;1.30;1.20;;;12.90;99.90;;;;;;21107959;28;20093;-58
2022/07/30 02:01:27;;;;;;;4.43;0.80;;;13.00;99.90;;;;;;21102392;28;20084;-58
2022/07/30 02:22:12;;;;;;;0.47;0.28;;;13.00;99.90;;;;;;21130174;28;20039;-57
2022/07/30 02:32:20;;;;;;;0.43;0.30;;;13.10;99.90;;;;;;21113288;28;20461;-57
2022/07/30 02:42:25;;;;;;;0.65;0.20;;;13.00;99.90;;;;;;21110553;28;20039;-57
2022/07/30 02:52:28;;;;;;;0.10;0.10;;;13.10;99.90;;;;;;21113862;28;20039;-58
2022/07/30 03:02:33;;;;;;;0.40;0.20;;;13.10;99.90;;;;;;21101956;28;20105;-57
2022/07/30 03:12:38;;;;;;;0.20;0.17;;;13.10;99.90;;;;;;21126450;28;20429;-56
2022/07/30 03:22:48;;;;;;;0.20;0.20;;;13.10;99.90;;;;;;21099205;28;20031;-58
2022/07/30 03:32:52;;;;;;;0.93;0.40;;;13.20;99.90;;;;;;21116424;28;20100;-56
2022/07/30 03:42:55;;;;;;;0.95;0.20;;;13.40;99.90;;;;;;21109202;28;20089;-57
2022/07/30 03:53:00;;;;;;;0.30;0.10;;;13.30;99.90;;;;;;21098182;28;20085;-57
2022/07/30 04:03:05;;;;;;;1.17;0.10;;;13.30;99.90;;;;;;21106841;28;20032;-56
2022/07/30 04:13:07;;;;;;;0.20;0.10;;;13.40;99.90;;;;;;21110438;28;20605;-57
2022/07/30 04:23:10;;;;;;;0.15;0.10;;;13.50;99.90;;;;;;21098983;28;20065;-56
2022/07/30 04:33:14;;;;;;;0.65;0.10;;;13.60;99.90;;;;;;21105239;28;20563;-56
2022/07/30 04:43:16;;;;;;;0.93;0.20;;;13.70;99.90;;;;;;21099369;28;20054;-56
2022/07/30 04:53:19;;;;;;;0.52;0.20;;;13.90;99.90;;;;;;21102608;28;20044;-56
2022/07/30 05:03:30;;;;;;;0.20;0.20;;;14.20;99.90;;;;;;21096614;28;20069;-56
2022/07/30 05:13:32;;;;;;;0.22;0.20;;;14.30;99.90;;;;;;21111735;28;20573;-56
2022/07/30 05:23:35;;;;;;;0.20;0.20;;;14.30;99.90;;;;;;21102274;28;20035;-56
2022/07/30 05:33:49;;;;;;;0.40;0.30;;;14.50;99.90;;;;;;21097753;28;20116;-56
2022/07/30 05:43:53;;;;;;;1.08;0.40;;;14.70;99.90;;;;;;21106074;28;20113;-59
2022/07/30 05:53:56;;;;;;;0.60;0.40;;;14.80;99.90;;;;;;21116814;28;20088;-56
2022/07/30 06:03:59;;;;;;;1.55;0.30;;;14.90;99.90;;;;;;21110704;28;20039;-56
2022/07/30 06:14:14;;;;;;;1.52;0.40;;;15.00;99.90;;;;;;21099482;28;20031;-56
2022/07/30 06:24:16;;;;;;;0.47;0.30;;;15.30;99.90;;;;;;21090432;28;20036;-57
2022/07/30 06:34:32;;;;;;;0.80;0.35;;;18.80;99.30;;;;;;21097220;28;20427;-64
2022/07/30 06:44:35;;;;;;;1.25;0.47;;;18.90;94.50;;;;;;21092274;28;20040;-65
2022/07/30 06:54:58;;;;;;;1.33;0.40;;;;;;;;;;21108034;28;20396;-58
2022/07/30 07:05:16;;;;;;;2.05;0.52;;;21.10;92.20;;;;;;21110774;28;20035;-63
2022/07/30 07:15:22;;;;;;;4.15;0.80;;;;;;;;;;21102783;28;20032;-58
2022/07/30 07:25:26;;;;;;;1.42;0.40;;;;;;;;;;21129541;28;20039;-59
2022/07/30 07:35:29;;;;;;;3.38;0.57;;;;;;;;;;21115786;28;20067;-60
2022/07/30 07:45:34;;;;;;;2.03;0.63;;;;;;;;;;21112911;28;20077;-58
2022/07/30 07:55:43;;;;;;;0.85;0.60;;;;;;;;;;21092378;28;20032;-59
2022/07/30 08:05:48;;;;;;;0.88;0.57;;;;;;;;;;21086556;28;20069;-58
2022/07/30 08:16:15;;;;;;;1.88;0.70;;;;;;;;;;21122521;28;20035;-60
2022/07/30 08:26:36;;;;;;;0.73;0.50;;;;;;;;;;21101329;28;20084;-58
2022/07/30 08:36:40;;;;;;;0.82;0.60;;;;;;;;;;21114467;28;20048;-58
2022/07/30 08:46:43;;;;;;;0.65;0.65;;;;;;;;;;21103708;28;20119;-58
2022/07/30 08:57:00;;;;;;;0.55;0.50;;;;;;;;;;21095961;28;20036;-58
2022/07/30 09:07:05;;;;;;;0.82;0.52;;;;;;;;;;21103543;28;20120;-58
2022/07/30 09:17:09;;;;;;;0.60;0.60;;;;;;;;;;21093420;28;20032;-60
2022/07/30 09:27:12;;;;;;;1.42;0.63;;;22.60;94.70;;;;;;21103691;28;20027;-59
2022/07/30 09:37:23;;;;;;;0.93;0.70;;;23.00;71.90;;;;;;21076940;28;20088;-58
2022/07/30 09:47:49;;;;;;;2.65;0.70;;;23.20;71.60;;;;;;21082081;28;20039;-58
2022/07/30 09:57:59;;;;;;;0.90;0.50;;;23.40;71.20;;;;;;21107426;28;20040;-58
2022/07/30 10:08:06;;;;;;;1.02;0.70;;;22.70;71.00;;;;;;21078332;28;20039;-58
2022/07/30 10:18:10;;;;;;;0.95;0.68;;;23.10;71.00;;;;;;21097382;28;20031;-59
2022/07/30 10:28:31;;;;;;;0.73;0.73;;;23.20;67.80;;;;;;21116294;28;20121;-58
2022/07/30 10:38:39;;;;;;;0.50;0.50;;;23.70;70.20;;;;;;21122829;28;20104;-58
2022/07/30 10:48:42;;;;;;;3.50;1.00;;;24.20;67.60;;;;;;21135068;28;20032;-58
2022/07/30 10:59:05;;;;;;;1.70;0.55;;;24.10;69.30;;;;;;21128007;28;20061;-58
2022/07/30 11:09:39;;;;;;;1.15;0.65;;;24.00;69.70;;;;;;21121568;28;20096;-58
2022/07/30 11:20:03;;;;;;;3.25;0.60;;;25.30;71.90;;;;;;21117795;28;20057;-58
2022/07/30 11:30:15;;;;;;;1.52;0.90;;;26.70;73.30;;;;;;21114351;28;20070;-58
2022/07/30 11:40:18;;;;;;;2.03;0.60;;;27.30;69.30;;;;;;21129095;28;20036;-58
2022/07/30 11:50:26;;;;;;;3.08;0.70;;;27.70;67.30;;;;;;21121104;28;20032;-59
2022/07/30 12:00:44;;;;;;;1.40;0.90;;;27.60;65.60;;;;;;21130988;28;20433;-58
2022/07/30 12:10:58;;;;;;;2.08;0.75;;;27.80;68.90;;;;;;21120093;28;20728;-58
2022/07/30 12:21:07;;;;;;;1.45;0.88;;;25.90;70.50;;;;;;21105692;28;20027;-58
2022/07/30 12:31:15;;;;;;;1.63;0.93;;;27.60;69.00;;;;;;21119334;28;20569;-58
2022/07/30 12:41:17;;;;;;;2.60;1.15;;;28.20;73.90;;;;;;21092683;28;20065;-58
2022/07/30 12:51:22;;;;;;;3.22;0.98;;;26.30;77.80;;;;;;21107336;28;20032;-58
2022/07/30 13:01:45;;;;;;;2.35;1.08;;;25.30;78.50;;;;;;21114225;28;20032;-58
2022/07/30 13:11:50;;;;;;;1.55;1.10;;;24.80;80.70;;;;;;21088235;28;20027;-58
2022/07/30 13:21:53;;;;;;;1.50;1.02;;;24.90;82.40;;;;;;21119232;28;20573;-58
2022/07/30 13:31:55;;;;;;;1.77;1.20;;;25.60;83.00;;;;;;21110833;28;20348;-57
2022/07/30 13:41:58;;;;;;;2.03;1.00;;;26.00;77.80;;;;;;21108258;28;20043;-59
2022/07/30 13:52:00;;;;;;;1.17;1.05;;;25.50;76.30;;;;;;21103973;28;20061;-58
2022/07/30 14:02:03;;;;;;;2.70;1.08;;;24.50;84.00;;;;;;21112231;28;20081;-58
2022/07/30 14:12:07;;;;;;;3.03;0.90;;;25.20;85.00;;;;;;21134003;28;20484;-58
2022/07/30 14:22:10;;;;;;;1.35;1.13;;;27.20;77.50;;;;;;21126557;28;20399;-58
2022/07/30 14:32:13;;;;;;;3.25;1.15;;;26.80;77.30;;;;;;21118825;28;20096;-58
2022/07/30 14:42:15;;;;;;;1.75;1.02;;;26.30;78.90;;;;;;21133383;28;20046;-58
2022/07/30 14:52:18;;;;;;;1.02;0.80;;;25.60;78.70;;;;;;21123276;28;20065;-58
2022/07/30 15:02:22;;;;;;;1.10;0.80;;;25.10;77.70;;;;;;21130994;28;20032;-58
2022/07/30 15:12:24;;;;;;;1.52;1.10;;;24.40;80.30;;;;;;21127047;28;20036;-57
2022/07/30 15:22:27;;;;;;;2.53;0.95;;;23.90;81.20;;;;;;21116770;28;20039;-57
2022/07/30 15:32:30;;;;;;;0.70;0.70;;;23.20;81.70;;;;;;21128994;28;20443;-57
2022/07/30 15:42:33;;;;;;;1.58;1.27;;;23.20;82.50;;;;;;21117384;28;20101;-59
2022/07/30 15:52:36;;;;;;;6.03;1.50;;;23.50;79.20;;;;;;21125945;28;20040;-58
2022/07/30 16:02:39;;;;;;;2.90;1.20;;;23.70;82.20;;;;;;21125114;28;20036;-57
2022/07/30 16:12:42;;;;;;;1.50;1.20;;;23.60;84.20;;;;;;21115570;28;20380;-58
2022/07/30 16:22:46;;;;;;;1.42;1.13;;;23.90;78.70;;;;;;21127829;28;20073;-60
2022/07/30 16:32:49;;;;;;;6.95;1.30;;;24.10;80.50;;;;;;21118962;28;20074;-59
2022/07/30 16:42:52;;;;;;;2.17;1.08;;;23.30;82.10;;;;;;21096787;28;20566;-58
2022/07/30 16:52:54;;;;;;;2.08;1.30;;;22.60;85.50;;;;;;21090052;28;20035;-60
2022/07/30 17:02:56;;;;;;;1.30;1.20;;;21.50;89.10;;;;;;21109621;28;20043;-59
2022/07/30 17:12:59;;;;;;;1.50;1.30;;;20.40;91.50;;;;;;21113835;28;20039;-59
2022/07/30 17:23:02;;;;;;;2.75;1.20;;;19.50;93.30;;;;;;21106447;28;20116;-59
2022/07/30 17:33:05;;;;;;;2.50;1.48;;;18.80;95.40;;;;;;21110367;28;20565;-59
2022/07/30 17:43:07;;;;;;;1.73;1.48;;;18.40;96.50;;;;;;21113327;28;20048;-59
2022/07/30 17:53:10;;;;;;;2.00;1.50;;;18.30;97.00;;;;;;21107477;28;20032;-59
2022/07/30 18:03:15;;;;;;;3.50;1.90;;;18.20;97.00;;;;;;21124000;28;20035;-59
2022/07/30 18:13:18;;;;;;;2.20;1.88;;;18.10;97.80;;;;;;21116876;28;20039;-59
2022/07/30 18:23:21;;;;;;;1.88;1.30;;;17.90;97.90;;;;;;21106797;28;20044;-59
2022/07/30 18:33:24;;;;;;;2.85;1.52;;;17.60;98.70;;;;;;21118318;28;20040;-59
2022/07/30 18:43:29;;;;;;;2.38;1.60;;;17.20;99.40;;;;;;21103769;28;20088;-58
2022/07/30 18:53:33;;;;;;;2.33;1.40;;;16.60;99.90;;;;;;21113805;28;20027;-59
2022/07/30 19:03:35;;;;;;;2.55;1.50;;;16.30;99.90;;;;;;21125133;28;20541;-59
2022/07/30 19:13:38;;;;;;;1.55;1.38;;;16.00;99.90;;;;;;21114483;28;20089;-59
2022/07/30 19:23:42;;;;;;;2.75;1.60;;;15.80;99.90;;;;;;21129332;28;20088;-60
2022/07/30 19:33:44;;;;;;;2.80;2.05;;;15.90;99.90;;;;;;21102474;28;20047;-59
2022/07/30 19:43:47;;;;;;;1.73;1.58;;;15.80;99.90;;;;;;21125147;28;20028;-59
2022/07/30 19:53:50;;;;;;;2.47;2.00;;;15.70;99.90;;;;;;21100213;28;20089;-59
2022/07/30 20:03:52;;;;;;;4.05;2.20;;;15.80;99.90;;;;;;21111624;28;20036;-59
2022/07/30 20:13:55;;;;;;;2.15;1.80;;;15.90;99.90;;;;;;21122604;28;20554;-59
2022/07/30 20:23:58;;;;;;;4.80;2.17;;;15.50;99.90;;;;;;21114367;28;20069;-56
2022/07/30 20:34:01;;;;;;;1.40;1.10;;;15.10;99.90;;;;;;21113894;28;20040;-59
2022/07/30 20:44:03;;;;;;;1.30;1.10;;;14.80;99.90;;;;;;21115984;28;20071;-59
2022/07/30 20:54:06;;;;;;;1.17;0.68;;;14.70;99.90;;;;;;21090863;28;20073;-58
2022/07/30 21:04:09;;;;;;;1.65;0.70;;;14.90;99.90;;;;;;21116867;28;20028;-60
2022/07/30 21:14:13;;;;;;;0.77;0.77;;;14.90;99.00;;;;;;21110670;28;20027;-59
2022/07/30 21:24:17;;;;;;;0.60;0.60;;;15.00;98.60;;;;;;21111006;28;20047;-61
2022/07/30 21:34:20;;;;;;;0.98;0.70;;;15.30;97.50;;;;;;21107850;28;20070;-59
2022/07/30 21:44:24;;;;;;;0.60;0.50;;;15.70;94.90;;;;;;21099450;28;20070;-59
2022/07/30 21:54:27;;;;;;;0.63;0.40;;;16.00;93.40;;;;;;21103740;28;20028;-59
2022/07/30 22:04:29;;;;;;;0.80;0.50;;;16.30;93.90;;;;;;21094911;28;20032;-59
2022/07/30 22:14:32;;;;;;;1.30;0.52;;;16.50;92.20;;;;;;21097523;28;20036;-59
2022/07/30 22:24:35;;;;;;;1.13;0.50;;;16.50;91.60;;;;;;21100962;28;20040;-61
2022/07/30 22:34:38;;;;;;;1.95;0.80;;;16.40;90.30;;;;;;21112847;28;20124;-59
2022/07/30 22:44:42;;;;;;;1.38;0.60;;;16.50;88.90;;;;;;21077457;28;20346;-60
2022/07/30 22:54:45;;;;;;;0.73;0.40;;;16.40;88.40;;;;;;21113061;28;20039;-59
2022/07/30 23:04:47;;;;;;;2.00;0.45;;;16.10;90.50;;;;;;21118902;28;20036;-58
2022/07/30 23:14:52;;;;;;;0.68;0.50;;;15.80;89.60;;;;;;21107704;28;20082;-59
2022/07/30 23:24:55;;;;;;;1.52;0.50;;;15.70;90.00;;;;;;21109688;28;20103;-60
2022/07/30 23:34:58;;;;;;;0.80;0.50;;;15.20;92.30;;;;;;21105469;28;20048;-60
2022/07/30 23:45:00;;;;;;;0.40;0.40;;;14.60;93.10;;;;;;21112417;28;20377;-59
2022/07/30 23:55:03;;;;;;;1.13;0.70;;;14.60;91.90;;;;;;21097343;28;20031;-59
